createdAt,value
2019-04-28T00:01:24.093Z,9.20
2019-04-28T00:03:53.944Z,9.20
2019-04-28T00:06:25.021Z,9.10
2019-04-28T00:08:55.386Z,9.10
2019-04-28T00:11:25.396Z,9.10
2019-04-28T00:13:55.985Z,9.10
2019-04-28T00:16:25.980Z,9.10
2019-04-28T00:18:57.605Z,9.10
2019-04-28T00:21:56.598Z,9.10
2019-04-28T00:24:41.616Z,9.10
2019-04-28T00:27:14.062Z,9.10
2019-04-28T00:29:47.995Z,9.10
2019-04-28T00:32:18.168Z,9.10
2019-04-28T00:34:48.648Z,9.00
2019-04-28T00:37:32.020Z,9.10
2019-04-28T00:40:03.108Z,9.10
2019-04-28T00:42:33.204Z,9.10
2019-04-28T00:45:04.146Z,9.10
2019-04-28T00:47:34.799Z,9.10
2019-04-28T00:53:20.692Z,9.00
2019-04-28T00:55:51.576Z,8.90
2019-04-28T00:58:22.830Z,8.90
2019-04-28T01:00:54.638Z,9.00
2019-04-28T01:03:26.873Z,9.00
2019-04-28T01:05:57.402Z,9.00
2019-04-28T01:08:27.732Z,9.00
2019-04-28T01:10:57.959Z,9.00
2019-04-28T01:13:27.777Z,9.00
2019-04-28T01:16:04.560Z,9.00
2019-04-28T01:19:00.099Z,9.10
2019-04-28T01:21:50.308Z,9.10
2019-04-28T01:24:24.546Z,9.10
2019-04-28T01:26:56.581Z,9.10
2019-04-28T01:29:27.017Z,9.10
2019-04-28T01:32:11.161Z,9.10
2019-04-28T01:34:41.040Z,9.20
2019-04-28T01:37:11.056Z,9.30
2019-04-28T01:39:41.227Z,9.30
2019-04-28T01:42:16.612Z,9.20
2019-04-28T01:44:49.482Z,9.20
2019-04-28T01:47:20.453Z,9.10
2019-04-28T01:49:50.597Z,9.20
2019-04-28T01:52:20.985Z,9.10
2019-04-28T01:54:51.177Z,9.10
2019-04-28T01:57:21.616Z,9.00
2019-04-28T01:59:51.596Z,9.00
2019-04-28T02:02:21.624Z,9.00
2019-04-28T02:04:51.626Z,9.00
2019-04-28T02:07:21.663Z,9.00
2019-04-28T02:09:51.801Z,9.00
2019-04-28T02:12:43.693Z,9.00
2019-04-28T02:15:14.336Z,9.00
2019-04-28T02:17:45.133Z,9.00
2019-04-28T02:20:16.468Z,9.00
2019-04-28T02:22:52.377Z,8.90
2019-04-28T02:25:22.377Z,8.90
2019-04-28T02:27:52.371Z,8.90
2019-04-28T02:30:32.523Z,8.90
2019-04-28T02:32:55.820Z,8.90
2019-04-28T02:35:26.275Z,8.90
2019-04-28T02:37:56.266Z,8.90
2019-04-28T02:40:26.285Z,8.80
2019-04-28T02:42:56.302Z,8.80
2019-04-28T02:45:26.565Z,8.80
2019-04-28T02:48:02.327Z,8.80
2019-04-28T02:50:40.968Z,8.80
2019-04-28T02:53:16.664Z,8.80
2019-04-28T02:55:46.862Z,8.80
2019-04-28T02:58:17.577Z,8.80
2019-04-28T03:01:02.795Z,8.80
2019-04-28T03:03:21.144Z,8.90
2019-04-28T03:05:51.597Z,8.80
2019-04-28T03:08:21.625Z,8.80
2019-04-28T03:10:51.650Z,8.80
2019-04-28T03:13:23.031Z,8.80
2019-04-28T03:15:53.690Z,8.80
2019-04-28T03:18:24.094Z,8.70
2019-04-28T03:20:54.767Z,8.70
2019-04-28T03:23:24.850Z,8.70
2019-04-28T03:26:11.297Z,8.70
2019-04-28T03:28:53.885Z,8.70
2019-04-28T03:32:16.172Z,8.80
2019-04-28T03:34:16.706Z,8.70
2019-04-28T03:36:46.845Z,9.00
2019-04-28T03:39:17.340Z,8.60
2019-04-28T03:41:50.061Z,8.60
2019-04-28T03:44:20.797Z,8.60
2019-04-28T03:46:53.690Z,8.60
2019-04-28T03:49:35.927Z,8.60
2019-04-28T03:52:10.768Z,8.60
2019-04-28T03:54:41.213Z,8.60
2019-04-28T03:57:11.805Z,8.60
2019-04-28T03:59:51.209Z,8.60
2019-04-28T04:02:23.674Z,8.50
2019-04-28T04:04:53.999Z,8.50
2019-04-28T04:07:24.018Z,8.50
2019-04-28T04:10:23.452Z,8.50
2019-04-28T04:13:22.386Z,8.40
2019-04-28T04:16:07.408Z,8.40
2019-04-28T04:18:43.781Z,8.50
2019-04-28T04:21:14.103Z,8.40
2019-04-28T04:23:45.601Z,8.40
2019-04-28T04:26:15.921Z,8.40
2019-04-28T04:28:46.482Z,8.40
2019-04-28T04:31:22.520Z,8.50
2019-04-28T04:33:52.944Z,8.50
2019-04-28T04:36:22.957Z,8.50
2019-04-28T04:38:53.207Z,8.50
2019-04-28T04:41:25.292Z,8.50
2019-04-28T04:43:55.236Z,8.50
2019-04-28T04:46:25.984Z,8.50
2019-04-28T04:48:56.056Z,8.50
2019-04-28T04:51:27.400Z,8.40
2019-04-28T04:53:57.316Z,8.40
2019-04-28T04:56:27.289Z,8.40
2019-04-28T04:58:57.410Z,8.40
2019-04-28T05:01:56.117Z,8.40
2019-04-28T05:04:51.309Z,8.40
2019-04-28T05:07:21.350Z,8.40
2019-04-28T05:09:51.366Z,8.40
2019-04-28T05:12:21.381Z,8.30
2019-04-28T05:14:51.405Z,8.30
2019-04-28T05:17:23.781Z,8.30
2019-04-28T05:19:54.325Z,8.30
2019-04-28T05:22:26.796Z,8.30
2019-04-28T05:25:11.997Z,8.30
2019-04-28T05:27:42.453Z,8.30
2019-04-28T05:30:14.101Z,8.20
2019-04-28T05:32:49.587Z,8.20
2019-04-28T05:35:17.632Z,8.20
2019-04-28T05:37:52.893Z,8.20
2019-04-28T05:40:22.909Z,8.30
2019-04-28T05:43:00.797Z,8.30
2019-04-28T05:45:36.506Z,8.30
2019-04-28T05:48:09.037Z,8.30
2019-04-28T05:50:54.010Z,8.40
2019-04-28T05:53:34.645Z,8.40
2019-04-28T05:56:21.713Z,8.50
2019-04-28T05:59:00.649Z,8.60
2019-04-28T06:02:06.008Z,8.50
2019-04-28T06:04:54.101Z,8.50
2019-04-28T06:07:31.233Z,8.50
2019-04-28T06:10:01.149Z,8.50
2019-04-28T06:12:32.024Z,8.40
2019-04-28T06:15:02.747Z,8.20
2019-04-28T06:17:32.794Z,8.30
2019-04-28T06:20:02.821Z,8.30
2019-04-28T06:22:32.783Z,8.30
2019-04-28T06:25:02.612Z,8.30
2019-04-28T06:27:32.929Z,8.30
2019-04-28T06:30:04.853Z,8.40
2019-04-28T06:32:35.925Z,8.30
2019-04-28T06:35:06.327Z,8.30
2019-04-28T06:37:36.768Z,8.30
2019-04-28T06:40:06.862Z,8.30
2019-04-28T06:42:36.573Z,8.30
2019-04-28T06:45:06.591Z,8.30
2019-04-28T06:47:36.353Z,8.30
2019-04-28T06:50:06.478Z,8.40
2019-04-28T06:52:36.464Z,7.90
2019-04-28T06:55:06.520Z,8.60
2019-04-28T06:57:36.654Z,8.50
2019-04-28T07:00:07.388Z,8.50
2019-04-28T07:02:37.005Z,8.50
2019-04-28T07:05:09.272Z,8.50
2019-04-28T07:07:39.033Z,8.50
2019-04-28T07:10:09.109Z,8.40
2019-04-28T07:12:38.785Z,8.40
2019-04-28T07:15:08.805Z,8.40
2019-04-28T07:17:38.742Z,8.30
2019-04-28T07:20:30.569Z,8.30
2019-04-28T07:23:00.682Z,8.30
2019-04-28T07:25:30.711Z,8.30
2019-04-28T07:28:00.571Z,8.40
2019-04-28T07:30:30.285Z,8.40
2019-04-28T07:33:01.774Z,8.50
2019-04-28T07:35:31.705Z,8.50
2019-04-28T07:38:03.703Z,8.50
2019-04-28T07:40:33.788Z,8.40
2019-04-28T07:43:03.416Z,8.40
2019-04-28T07:45:33.281Z,8.40
2019-04-28T07:48:03.267Z,8.50
2019-04-28T07:50:34.161Z,8.60
2019-04-28T07:53:28.667Z,8.70
2019-04-28T07:55:58.661Z,8.70
2019-04-28T07:58:28.326Z,8.80
2019-04-28T08:00:58.795Z,8.80
2019-04-28T08:03:28.526Z,8.80
2019-04-28T08:05:59.822Z,8.80
2019-04-28T08:08:30.073Z,8.80
2019-04-28T08:11:00.069Z,8.60
2019-04-28T08:13:30.010Z,8.50
2019-04-28T08:15:59.831Z,8.60
2019-04-28T08:18:34.710Z,8.70
2019-04-28T08:21:04.477Z,8.80
2019-04-28T08:23:46.658Z,8.80
2019-04-28T08:26:07.110Z,8.80
2019-04-28T08:28:36.674Z,8.80
2019-04-28T08:31:07.443Z,8.80
2019-04-28T08:33:46.111Z,8.80
2019-04-28T08:36:17.079Z,8.80
2019-04-28T08:38:47.066Z,8.70
2019-04-28T08:41:17.061Z,8.80
2019-04-28T08:43:50.582Z,8.80
2019-04-28T08:46:25.401Z,8.80
2019-04-28T08:48:57.050Z,8.70
2019-04-28T08:51:28.105Z,8.70
2019-04-28T08:54:01.505Z,8.70
2019-04-28T08:56:34.070Z,8.70
2019-04-28T08:59:06.003Z,8.80
2019-04-28T09:01:36.290Z,8.90
2019-04-28T09:04:15.256Z,9.00
2019-04-28T09:06:37.816Z,9.00
2019-04-28T09:09:13.199Z,9.00
2019-04-28T09:11:43.047Z,9.10
2019-04-28T09:14:12.790Z,9.20
2019-04-28T09:16:42.679Z,9.30
2019-04-28T09:19:12.422Z,9.40
2019-04-28T09:21:42.443Z,9.50
2019-04-28T09:24:12.175Z,9.70
2019-04-28T09:26:42.495Z,9.90
2019-04-28T09:29:12.131Z,10.00
2019-04-28T09:31:42.002Z,10.10
2019-04-28T09:34:11.931Z,10.10
2019-04-28T09:36:41.897Z,10.10
2019-04-28T09:39:13.365Z,9.90
2019-04-28T09:41:48.427Z,9.70
2019-04-28T09:44:20.034Z,9.50
2019-04-28T09:46:53.644Z,9.40
2019-04-28T09:49:23.415Z,9.30
2019-04-28T09:51:54.482Z,9.30
2019-04-28T09:54:24.510Z,9.30
2019-04-28T09:56:56.887Z,9.40
2019-04-28T09:59:25.936Z,9.50
2019-04-28T10:01:55.948Z,9.50
2019-04-28T10:04:26.878Z,9.60
2019-04-28T10:06:56.625Z,9.70
2019-04-28T10:09:26.570Z,9.90
2019-04-28T10:11:56.454Z,10.00
2019-04-28T10:14:26.632Z,10.30
2019-04-28T10:16:56.278Z,10.50
2019-04-28T10:19:25.961Z,10.60
2019-04-28T10:21:55.826Z,10.70
2019-04-28T10:24:25.611Z,10.90
2019-04-28T10:27:00.076Z,11.20
2019-04-28T10:29:29.681Z,11.60
2019-04-28T10:31:59.730Z,11.60
2019-04-28T10:34:29.868Z,11.60
2019-04-28T10:37:00.097Z,11.60
2019-04-28T10:39:35.737Z,11.50
2019-04-28T10:42:06.970Z,11.30
2019-04-28T10:44:40.176Z,11.00
2019-04-28T10:47:11.088Z,10.90
2019-04-28T10:49:42.382Z,11.00
2019-04-28T10:52:12.287Z,11.10
2019-04-28T10:54:42.308Z,11.10
2019-04-28T10:57:15.593Z,11.00
2019-04-28T10:59:46.975Z,10.90
2019-04-28T11:02:18.370Z,11.00
2019-04-28T11:05:13.409Z,11.10
2019-04-28T11:07:45.125Z,11.30
2019-04-28T11:10:17.250Z,11.60
2019-04-28T11:12:49.402Z,11.90
2019-04-28T11:15:23.706Z,12.00
2019-04-28T11:17:53.450Z,12.00
2019-04-28T11:20:25.267Z,12.00
2019-04-28T11:22:54.971Z,12.20
2019-04-28T11:25:25.393Z,12.40
2019-04-28T11:27:57.658Z,12.30
2019-04-28T11:30:29.693Z,12.30
2019-04-28T11:33:25.010Z,12.30
2019-04-28T11:35:56.457Z,12.20
2019-04-28T11:38:26.263Z,12.20
2019-04-28T11:40:58.258Z,12.10
2019-04-28T11:43:29.225Z,11.90
2019-04-28T11:45:59.103Z,11.80
2019-04-28T11:48:28.928Z,12.00
2019-04-28T11:50:58.981Z,12.10
2019-04-28T11:53:28.645Z,12.20
2019-04-28T11:55:58.337Z,12.30
2019-04-28T11:58:28.365Z,12.40
2019-04-28T12:00:58.395Z,12.50
2019-04-28T12:03:28.444Z,12.70
2019-04-28T12:05:58.103Z,12.60
2019-04-28T12:08:27.812Z,12.80
2019-04-28T12:11:06.855Z,12.80
2019-04-28T12:13:48.773Z,12.60
2019-04-28T12:16:37.798Z,12.50
2019-04-28T12:19:12.967Z,12.80
2019-04-28T12:21:43.041Z,12.90
2019-04-28T12:24:13.256Z,12.90
2019-04-28T12:26:44.320Z,12.90
2019-04-28T12:29:14.135Z,13.10
2019-04-28T12:31:44.045Z,13.30
2019-04-28T12:34:14.380Z,13.30
2019-04-28T12:36:44.824Z,13.20
2019-04-28T12:39:16.278Z,13.10
2019-04-28T12:41:47.409Z,13.10
2019-04-28T12:44:17.321Z,13.30
2019-04-28T12:46:47.161Z,13.30
2019-04-28T12:49:49.000Z,13.10
2019-04-28T12:52:20.673Z,13.20
2019-04-28T12:54:50.709Z,13.20
2019-04-28T12:57:20.706Z,13.30
2019-04-28T13:00:04.074Z,13.40
2019-04-28T13:02:59.059Z,13.40
2019-04-28T13:05:34.561Z,13.30
2019-04-28T13:08:04.949Z,13.50
2019-04-28T13:10:35.654Z,13.50
2019-04-28T13:13:08.263Z,13.40
2019-04-28T13:15:46.451Z,13.50
2019-04-28T13:18:33.576Z,13.50
2019-04-28T13:21:11.993Z,13.60
2019-04-28T13:23:46.966Z,13.70
2019-04-28T13:26:18.964Z,13.60
2019-04-28T13:28:52.693Z,13.40
2019-04-28T13:31:23.882Z,13.50
2019-04-28T13:34:19.207Z,13.50
2019-04-28T13:36:49.330Z,13.80
2019-04-28T13:39:32.850Z,13.70
2019-04-28T13:42:04.294Z,13.90
2019-04-28T13:44:54.031Z,13.90
2019-04-28T13:47:25.679Z,13.80
2019-04-28T13:50:37.030Z,13.80
2019-04-28T13:53:22.409Z,14.20
2019-04-28T13:56:01.491Z,14.60
2019-04-28T13:58:36.237Z,14.50
2019-04-28T14:01:25.793Z,14.40
2019-04-28T14:04:24.262Z,14.30
2019-04-28T14:07:01.237Z,13.80
2019-04-28T14:09:33.589Z,14.30
2019-04-28T14:12:03.534Z,14.00
2019-04-28T14:14:34.538Z,14.10
2019-04-28T14:17:11.876Z,14.40
2019-04-28T14:19:44.608Z,14.70
2019-04-28T14:22:16.598Z,14.70
2019-04-28T14:24:50.350Z,14.80
2019-04-28T14:27:20.150Z,15.10
2019-04-28T14:29:52.229Z,14.60
2019-04-28T14:32:22.234Z,14.50
2019-04-28T14:34:52.477Z,14.40
2019-04-28T14:37:22.543Z,14.40
2019-04-28T14:39:52.592Z,14.30
2019-04-28T14:42:22.633Z,14.00
2019-04-28T14:44:56.361Z,13.80
2019-04-28T14:47:26.795Z,13.40
2019-04-28T14:49:58.196Z,13.40
2019-04-28T14:52:28.632Z,13.30
2019-04-28T14:54:58.846Z,13.20
2019-04-28T14:57:30.751Z,13.30
2019-04-28T15:00:01.792Z,13.40
2019-04-28T15:02:43.831Z,13.60
2019-04-28T15:05:35.386Z,13.80
2019-04-28T15:08:15.871Z,13.80
2019-04-28T15:11:06.182Z,13.70
2019-04-28T15:13:36.888Z,13.40
2019-04-28T15:16:06.864Z,12.90
2019-04-28T15:18:36.885Z,12.70
2019-04-28T15:21:07.030Z,12.60
2019-04-28T15:23:37.842Z,12.50
2019-04-28T15:26:08.240Z,12.50
2019-04-28T15:28:38.349Z,12.70
2019-04-28T15:31:09.075Z,12.90
2019-04-28T15:33:43.056Z,12.70
2019-04-28T15:36:21.286Z,12.70
2019-04-28T15:38:52.029Z,12.70
2019-04-28T15:41:22.588Z,12.60
2019-04-28T15:43:56.058Z,12.40
2019-04-28T15:46:27.121Z,12.50
2019-04-28T15:48:59.455Z,12.30
2019-04-28T15:51:31.279Z,12.00
2019-04-28T15:54:03.494Z,12.00
2019-04-28T15:56:41.267Z,12.20
2019-04-28T15:59:11.390Z,12.50
2019-04-28T16:01:42.442Z,12.50
2019-04-28T16:04:12.672Z,12.60
2019-04-28T16:06:42.496Z,12.70
2019-04-28T16:09:13.650Z,12.90
2019-04-28T16:11:47.233Z,12.80
2019-04-28T16:14:19.599Z,12.80
2019-04-28T16:16:50.988Z,12.90
2019-04-28T16:19:31.165Z,12.70
2019-04-28T16:22:01.076Z,13.00
2019-04-28T16:24:31.048Z,12.90
2019-04-28T16:27:00.875Z,12.90
2019-04-28T16:29:30.819Z,12.90
2019-04-28T16:32:00.841Z,12.90
2019-04-28T16:34:30.858Z,12.90
2019-04-28T16:37:01.121Z,13.10
2019-04-28T16:39:31.073Z,13.10
2019-04-28T16:42:01.095Z,13.20
2019-04-28T16:44:30.805Z,13.50
2019-04-28T16:47:01.915Z,13.40
2019-04-28T16:49:31.579Z,13.40
2019-04-28T16:52:01.758Z,13.30
2019-04-28T16:54:31.691Z,13.40
2019-04-28T16:57:18.630Z,13.60
2019-04-28T17:00:04.577Z,13.70
2019-04-28T17:02:41.786Z,13.60
2019-04-28T17:05:11.706Z,13.70
2019-04-28T17:07:52.076Z,13.40
2019-04-28T17:10:13.269Z,13.60
2019-04-28T17:12:43.069Z,13.60
2019-04-28T17:15:13.020Z,13.60
2019-04-28T17:17:42.949Z,13.60
2019-04-28T17:20:13.525Z,13.80
2019-04-28T17:22:43.472Z,13.90
2019-04-28T17:25:13.594Z,14.00
2019-04-28T17:27:43.582Z,14.10
2019-04-28T17:30:13.965Z,14.00
2019-04-28T17:32:44.557Z,13.70
2019-04-28T17:35:15.643Z,13.50
2019-04-28T17:37:48.410Z,13.30
2019-04-28T17:40:20.619Z,13.00
2019-04-28T17:42:50.658Z,12.80
2019-04-28T17:45:21.192Z,12.50
2019-04-28T17:47:52.745Z,12.20
2019-04-28T17:50:23.215Z,12.10
2019-04-28T17:52:53.176Z,12.10
2019-04-28T17:55:24.050Z,12.00
2019-04-28T17:57:54.188Z,11.90
2019-04-28T18:00:49.515Z,11.80
2019-04-28T18:03:26.740Z,11.90
2019-04-28T18:06:17.631Z,11.80
2019-04-28T18:08:41.922Z,11.70
2019-04-28T18:11:12.136Z,11.50
2019-04-28T18:13:42.305Z,11.50
2019-04-28T18:16:27.867Z,11.30
2019-04-28T18:19:01.293Z,11.30
2019-04-28T18:21:32.890Z,11.30
2019-04-28T18:24:03.046Z,11.20
2019-04-28T18:26:34.273Z,11.20
2019-04-28T18:29:04.933Z,11.20
2019-04-28T18:32:12.409Z,11.20
2019-04-28T18:34:47.752Z,11.00
2019-04-28T18:37:42.947Z,10.90
2019-04-28T18:40:21.731Z,10.90
2019-04-28T18:42:59.482Z,10.80
2019-04-28T18:45:29.817Z,10.70
2019-04-28T18:47:59.729Z,10.60
2019-04-28T18:50:29.534Z,10.50
2019-04-28T18:52:59.110Z,10.10
2019-04-28T18:55:28.888Z,10.40
2019-04-28T18:57:58.529Z,10.40
2019-04-28T19:00:30.046Z,10.40
2019-04-28T19:03:01.341Z,10.30
2019-04-28T19:05:44.122Z,10.20
2019-04-28T19:08:48.509Z,10.20
2019-04-28T19:11:20.777Z,10.10
2019-04-28T19:13:55.438Z,10.10
2019-04-28T19:16:44.300Z,10.10
2019-04-28T19:19:15.833Z,10.00
2019-04-28T19:21:58.836Z,10.00
2019-04-28T19:24:28.537Z,10.00
2019-04-28T19:26:58.335Z,9.90
2019-04-28T19:29:28.207Z,9.80
2019-04-28T19:31:57.870Z,9.80
2019-04-28T19:34:28.290Z,9.80
2019-04-28T19:36:59.376Z,9.70
2019-04-28T19:39:29.290Z,9.70
2019-04-28T19:41:59.249Z,9.70
2019-04-28T19:44:29.176Z,9.70
2019-04-28T19:46:59.436Z,9.60
2019-04-28T19:49:29.877Z,9.60
2019-04-28T19:52:00.055Z,9.60
2019-04-28T19:54:33.726Z,9.60
2019-04-28T19:57:15.745Z,9.50
2019-04-28T20:00:03.494Z,9.50
2019-04-28T20:02:35.190Z,9.50
2019-04-28T20:05:05.636Z,9.50
2019-04-28T20:07:35.519Z,9.40
2019-04-28T20:10:05.905Z,9.40
2019-04-28T20:12:35.842Z,9.40
2019-04-28T20:15:06.304Z,9.40
2019-04-28T20:17:38.644Z,9.40
2019-04-28T20:20:09.530Z,9.30
2019-04-28T20:22:39.606Z,9.30
2019-04-28T20:25:10.067Z,9.30
2019-04-28T20:27:41.144Z,9.20
2019-04-28T20:30:11.160Z,9.20
2019-04-28T20:32:45.980Z,9.20
2019-04-28T20:35:20.076Z,9.10
2019-04-28T20:37:55.687Z,9.10
2019-04-28T20:40:32.678Z,9.10
2019-04-28T20:43:12.234Z,9.20
2019-04-28T20:45:42.763Z,9.10
2019-04-28T20:48:14.823Z,9.10
2019-04-28T20:50:44.865Z,9.10
2019-04-28T20:53:15.153Z,9.00
2019-04-28T20:55:45.466Z,9.00
2019-04-28T20:58:15.281Z,9.00
2019-04-28T21:00:45.224Z,9.00
2019-04-28T21:03:14.919Z,8.90
2019-04-28T21:05:45.958Z,8.90
2019-04-28T21:08:15.609Z,8.90
2019-04-28T21:10:45.374Z,8.90
2019-04-28T21:13:15.119Z,8.90
2019-04-28T21:15:45.034Z,8.90
2019-04-28T21:18:15.432Z,8.80
2019-04-28T21:20:46.501Z,8.90
2019-04-28T21:23:18.845Z,8.80
2019-04-28T21:25:48.645Z,8.80
2019-04-28T21:28:18.385Z,8.70
2019-04-28T21:30:48.172Z,8.70
2019-04-28T21:33:19.103Z,8.70
2019-04-28T21:35:48.930Z,8.70
2019-04-28T21:38:18.725Z,8.60
2019-04-28T21:40:48.593Z,8.60
2019-04-28T21:43:24.253Z,8.60
2019-04-28T21:46:21.992Z,8.50
2019-04-28T21:49:10.841Z,8.50
2019-04-28T21:51:40.474Z,8.50
2019-04-28T21:54:10.140Z,8.50
2019-04-28T21:56:41.995Z,8.40
2019-04-28T21:59:11.960Z,8.40
2019-04-28T22:01:41.949Z,8.40
2019-04-28T22:04:11.590Z,8.30
2019-04-28T22:06:41.284Z,8.30
2019-04-28T22:09:11.213Z,8.30
2019-04-28T22:11:41.481Z,8.30
2019-04-28T22:14:11.222Z,8.30
2019-04-28T22:16:40.918Z,8.20
2019-04-28T22:19:10.765Z,8.20
2019-04-28T22:21:40.477Z,8.20
2019-04-28T22:24:15.807Z,8.20
2019-04-28T22:26:46.984Z,8.20
2019-04-28T22:29:16.967Z,8.10
2019-04-28T22:31:46.987Z,8.10
2019-04-28T22:34:18.009Z,8.10
2019-04-28T22:36:48.030Z,8.10
2019-04-28T22:39:17.709Z,8.20
2019-04-28T22:41:49.189Z,8.10
2019-04-28T22:44:19.026Z,8.20
2019-04-28T22:46:48.831Z,8.20
2019-04-28T22:49:18.957Z,8.10
2019-04-28T22:51:50.106Z,8.10
2019-04-28T22:54:32.922Z,8.10
2019-04-28T22:57:21.266Z,8.20
2019-04-28T22:59:51.139Z,8.10
2019-04-28T23:02:21.155Z,8.10
2019-04-28T23:05:00.409Z,8.20
2019-04-28T23:07:30.200Z,8.10
2019-04-28T23:10:00.309Z,8.10
2019-04-28T23:12:29.960Z,8.10
2019-04-28T23:14:59.589Z,8.10
2019-04-28T23:17:29.268Z,8.00
2019-04-28T23:19:58.873Z,8.00
2019-04-28T23:22:46.835Z,8.10
2019-04-28T23:25:08.623Z,8.00
2019-04-28T23:27:38.301Z,8.10
2019-04-28T23:30:08.713Z,8.10
2019-04-28T23:32:38.296Z,8.00
2019-04-28T23:35:08.198Z,8.00
2019-04-28T23:37:38.130Z,8.00
2019-04-28T23:40:07.984Z,8.00
2019-04-28T23:42:45.832Z,8.00
2019-04-28T23:45:15.578Z,8.00
2019-04-28T23:47:45.783Z,8.00
2019-04-28T23:50:17.567Z,8.00
2019-04-28T23:52:55.433Z,8.00
2019-04-28T23:55:26.320Z,7.90
2019-04-28T23:57:56.030Z,8.00
